Disclaimer

Please do not use the information listed here in-flight or in-navigation, as they are not provided to us by the airports but are provided by volunteers, so they might be outdated.

Search


Regions


Airport information page

Radio informations:
Tower (TWR) - 125.9 MHz
Ground (GND) - 126.3 MHz
Clearance delivery - 128.75 MHz
Automatic Terminal Information Service (ATIS) - 115.7 MHz
Approach (APP) - 119.7 MHz

Airport informations:
Latitude: 28° 21' 55.50" N
Longitude: 036° 37' 08.00" E
Elevation: 2551 feet - 778 meters
Operating hours: 24 hour operations
Operating agency: Military
Timezone: UTC+3
Fuel: JP-4, Wide cut turbine fuel MIL Spec T-5624

Runway information:
06/24 - 10991 x 148 feet< - >3350 x 45 meters
13/31 - 10007 x 148 feet< - >3050 x 45 meters

Recent METARs:
OETB 182200Z 36006KT 9999 SCT040 17/07 Q1017 NOSIG
OETB 182300Z 06010KT 9999 BKN040 18/08 Q1016 NOSIG
OETB 182300Z 06010KT 9999 BKN040 18/08 Q1016 NOSIG

Airport on the map: